Great Valley, New York
Current Conditions -  °F | °C
As of 11:15 AM on Wednesday 22 Oct 2014 (Local Time) from KOLE Reporting Station
Moderate Fog Moderate Fog  
Wind Chill: 32°   Ceiling: 300
Heat Index: 39°   Visibility: 0.25mi
Dew Point: 39°   Wind: 10mph
Humidity: 100%   Direction: 10°N
Pressure: 30.15"   Gusts: 20mph
Location:  42.21°N, 78.64°W
Report Text: KOLE 221515Z AUTO 01009G17KT 1/4SM FG OVC003 04/04 A3015 RMK AO2
Loading
Personal Weather Stations






























Interactive Weather Map
Tropical Storm Tracking
New forecast layout! Learn more

10-Day Weather Forecast

Advertisements
Track Severe Weather on mobile